Time;durP1;ratioP1;P1;durP2;ratioP2;P2;SDS_P1;SDS_P2;PMS_P1;PMS_P2;Temp;Humidity;BMP_temperature;BMP_pressure;BME280_temperature;BME280_humidity;BME280_pressure;Samples;Min_cycle;Max_cycle;Signal;HPM_P1;HPM_P2
2021/03/18 00:00:12;;;;;;;4.90;2.63;;;4.40;99.90;;;;;;4161794;28;20044;-71
2021/03/18 00:02:12;;;;;;;8.80;3.10;;;4.40;99.90;;;;;;4149667;28;20053;-71
2021/03/18 00:04:16;;;;;;;9.65;3.08;;;4.30;99.90;;;;;;4154465;28;20446;-71
2021/03/18 00:06:16;;;;;;;8.48;2.65;;;4.30;99.90;;;;;;4157770;28;20029;-71
2021/03/18 00:08:17;;;;;;;5.53;2.58;;;4.30;99.90;;;;;;4158012;28;20531;-71
2021/03/18 00:10:18;;;;;;;9.38;3.30;;;4.30;99.90;;;;;;4161957;28;20034;-71
2021/03/18 00:12:18;;;;;;;4.88;2.92;;;4.30;99.90;;;;;;4160462;28;20044;-71
2021/03/18 00:14:24;;;;;;;5.72;2.70;;;4.30;99.90;;;;;;4154748;28;20033;-71
2021/03/18 00:16:25;;;;;;;3.90;2.42;;;4.30;99.90;;;;;;4156694;28;20459;-71
2021/03/18 00:18:33;;;;;;;10.13;2.80;;;4.30;99.90;;;;;;4155773;28;20072;-71
2021/03/18 00:20:34;;;;;;;5.38;2.22;;;4.30;99.90;;;;;;4158866;28;20478;-71
2021/03/18 00:22:42;;;;;;;5.90;2.45;;;4.30;99.90;;;;;;4155749;28;20117;-71
2021/03/18 00:24:43;;;;;;;4.90;2.08;;;4.20;99.90;;;;;;4161326;28;20037;-71
2021/03/18 00:26:44;;;;;;;5.13;2.42;;;4.30;99.90;;;;;;4160050;28;20075;-71
2021/03/18 00:28:45;;;;;;;5.35;2.38;;;4.30;99.90;;;;;;4158719;28;20037;-70
2021/03/18 00:30:45;;;;;;;3.22;2.08;;;4.30;99.90;;;;;;4161295;28;20037;-71
2021/03/18 00:32:48;;;;;;;7.68;2.40;;;4.30;99.90;;;;;;4158971;28;20045;-71
2021/03/18 00:34:49;;;;;;;5.28;2.17;;;4.30;99.90;;;;;;4160120;28;20034;-71
2021/03/18 00:36:50;;;;;;;7.03;2.30;;;4.40;99.90;;;;;;4161161;28;20030;-71
2021/03/18 00:38:53;;;;;;;6.57;2.33;;;4.40;99.90;;;;;;4159969;28;20078;-71
2021/03/18 00:40:58;;;;;;;5.97;2.22;;;4.40;99.90;;;;;;4152735;28;20176;-71
2021/03/18 00:43:02;;;;;;;5.20;2.42;;;4.40;99.90;;;;;;4160594;28;20171;-71
2021/03/18 00:45:03;;;;;;;3.35;2.00;;;4.40;99.90;;;;;;4160858;28;20048;-71
2021/03/18 00:47:04;;;;;;;7.95;2.22;;;4.40;99.90;;;;;;4161402;28;20030;-71
2021/03/18 00:49:05;;;;;;;8.40;2.85;;;4.40;99.90;;;;;;4159473;28;20030;-71
2021/03/18 00:51:12;;;;;;;6.40;2.87;;;4.30;99.90;;;;;;4159112;28;20041;-71
2021/03/18 00:53:17;;;;;;;7.35;2.53;;;4.30;99.90;;;;;;4160836;28;20071;-71
2021/03/18 00:55:17;;;;;;;7.43;2.92;;;4.30;99.90;;;;;;4159000;28;20113;-71
2021/03/18 00:57:18;;;;;;;7.80;2.80;;;4.30;99.90;;;;;;4159453;28;20073;-70
2021/03/18 00:59:18;;;;;;;6.82;2.50;;;4.30;99.90;;;;;;4160257;28;20033;-71
2021/03/18 01:01:23;;;;;;;6.95;2.70;;;4.20;99.90;;;;;;4156023;28;20033;-71
2021/03/18 01:03:25;;;;;;;4.97;2.63;;;4.20;99.90;;;;;;4160493;28;20064;-71
2021/03/18 01:05:30;;;;;;;7.07;2.45;;;4.20;99.90;;;;;;4159335;28;20037;-71
2021/03/18 01:07:31;;;;;;;6.65;2.58;;;4.20;99.90;;;;;;4159236;28;20045;-71
2021/03/18 01:09:31;;;;;;;6.53;2.70;;;4.10;99.90;;;;;;4153870;28;20382;-70
2021/03/18 01:11:36;;;;;;;6.72;2.70;;;4.10;99.90;;;;;;4160519;28;20080;-71
2021/03/18 01:13:40;;;;;;;3.90;1.80;;;4.10;99.90;;;;;;4159020;28;20044;-71
2021/03/18 01:15:40;;;;;;;5.25;2.50;;;4.10;99.90;;;;;;4159406;28;20067;-70
2021/03/18 01:17:42;;;;;;;7.38;2.17;;;4.10;99.90;;;;;;4160906;28;20488;-71
2021/03/18 01:19:42;;;;;;;4.80;2.10;;;4.10;99.90;;;;;;4158651;28;20029;-71
2021/03/18 01:21:46;;;;;;;4.35;2.17;;;4.10;99.90;;;;;;4160034;28;20122;-71
2021/03/18 01:23:47;;;;;;;4.93;2.13;;;4.10;99.90;;;;;;4138422;28;20064;-71
2021/03/18 01:25:48;;;;;;;4.63;2.17;;;4.10;99.90;;;;;;4158787;28;20026;-71
2021/03/18 01:27:48;;;;;;;5.75;2.42;;;4.10;99.90;;;;;;4158154;28;20082;-71
2021/03/18 01:29:51;;;;;;;3.72;2.03;;;4.10;99.90;;;;;;4158628;28;20034;-71
2021/03/18 01:31:52;;;;;;;5.38;2.08;;;4.10;99.90;;;;;;4160385;28;20072;-71
2021/03/18 01:33:52;;;;;;;3.97;1.80;;;4.10;99.90;;;;;;4156087;28;20026;-71
2021/03/18 01:35:54;;;;;;;6.53;2.83;;;4.10;99.90;;;;;;4151056;28;20561;-71
2021/03/18 01:37:54;;;;;;;6.63;2.58;;;4.10;99.90;;;;;;4145366;28;20038;-71
2021/03/18 01:39:56;;;;;;;4.65;2.35;;;4.00;99.90;;;;;;4160052;28;20522;-71
2021/03/18 01:41:57;;;;;;;4.55;2.53;;;4.00;99.90;;;;;;4159674;28;20045;-71
2021/03/18 01:43:58;;;;;;;6.18;2.38;;;3.90;99.90;;;;;;4155628;28;20060;-71
2021/03/18 01:45:59;;;;;;;8.88;2.70;;;3.90;99.90;;;;;;4152295;28;20021;-71
2021/03/18 01:48:00;;;;;;;5.18;2.70;;;3.90;99.90;;;;;;4158357;28;20052;-71
2021/03/18 01:50:02;;;;;;;11.98;2.78;;;3.90;99.90;;;;;;4158661;28;20425;-71
2021/03/18 01:52:03;;;;;;;10.13;2.93;;;3.90;99.90;;;;;;4159222;28;20101;-71
2021/03/18 01:54:04;;;;;;;7.85;3.00;;;3.90;99.90;;;;;;4156399;28;20514;-71
2021/03/18 01:56:07;;;;;;;10.60;3.08;;;3.80;99.90;;;;;;4158955;28;20424;-71
2021/03/18 01:58:09;;;;;;;9.75;3.13;;;3.70;99.90;;;;;;4160050;28;20053;-71
2021/03/18 02:00:10;;;;;;;5.75;2.45;;;3.80;99.90;;;;;;4152543;28;20472;-71
2021/03/18 02:02:11;;;;;;;6.18;2.55;;;3.70;99.90;;;;;;4159184;28;20048;-71
2021/03/18 02:04:11;;;;;;;6.90;2.38;;;3.80;99.90;;;;;;4158567;28;20017;-71
2021/03/18 02:06:12;;;;;;;7.70;2.80;;;3.70;99.90;;;;;;4154192;28;20463;-71
2021/03/18 02:08:14;;;;;;;8.35;2.83;;;3.70;99.90;;;;;;4153067;28;20100;-71
2021/03/18 02:10:15;;;;;;;11.65;3.50;;;3.70;99.90;;;;;;4157767;28;20033;-71
2021/03/18 02:12:15;;;;;;;5.55;2.88;;;3.70;99.90;;;;;;4159719;28;20584;-71
2021/03/18 02:14:16;;;;;;;7.45;2.70;;;3.70;99.90;;;;;;4159673;28;20139;-71
2021/03/18 02:16:16;;;;;;;6.25;2.50;;;3.80;99.90;;;;;;4158090;28;20026;-71
2021/03/18 02:18:26;;;;;;;6.93;2.90;;;3.70;99.90;;;;;;4156936;28;20044;-71
2021/03/18 02:20:46;;;;;;;6.63;2.78;;;3.70;99.90;;;;;;4155427;28;20038;-71
2021/03/18 02:23:14;;;;;;;6.97;2.50;;;3.80;99.90;;;;;;4158979;28;20072;-71
2021/03/18 02:25:28;;;;;;;7.80;2.40;;;3.70;99.90;;;;;;4151921;28;20095;-71
2021/03/18 02:27:54;;;;;;;10.75;2.92;;;3.80;99.90;;;;;;4148202;28;20414;-71
2021/03/18 02:30:24;;;;;;;4.82;2.72;;;3.80;99.90;;;;;;4154181;28;20043;-71
2021/03/18 02:33:03;;;;;;;7.18;2.83;;;3.70;99.90;;;;;;4121447;28;20029;-71
2021/03/18 02:35:27;;;;;;;6.45;2.70;;;3.70;99.90;;;;;;4153786;28;20113;-71
2021/03/18 02:37:31;;;;;;;6.55;2.80;;;3.70;99.90;;;;;;4151201;28;20108;-71
2021/03/18 02:39:39;;;;;;;7.95;2.80;;;3.70;99.90;;;;;;4155907;28;20424;-71
2021/03/18 02:41:49;;;;;;;6.82;2.90;;;3.70;99.90;;;;;;4153441;28;20033;-71
2021/03/18 02:44:04;;;;;;;7.30;2.63;;;3.70;99.90;;;;;;4158516;28;20085;-71
2021/03/18 02:46:07;;;;;;;5.88;2.58;;;3.70;99.90;;;;;;4152491;28;20120;-71
2021/03/18 02:48:12;;;;;;;7.80;2.38;;;3.80;99.90;;;;;;4150852;28;20041;-71
2021/03/18 02:50:14;;;;;;;5.53;2.63;;;3.80;99.90;;;;;;4157195;28;20033;-71
2021/03/18 02:52:21;;;;;;;6.15;2.83;;;3.80;99.90;;;;;;4139499;28;20037;-71
2021/03/18 02:54:22;;;;;;;10.30;3.08;;;3.80;99.90;;;;;;4159576;28;20033;-71
2021/03/18 02:56:24;;;;;;;7.82;2.78;;;3.80;99.90;;;;;;4140912;28;20176;-71
2021/03/18 02:58:29;;;;;;;10.07;3.40;;;3.80;99.90;;;;;;4157808;28;20032;-71
2021/03/18 03:00:30;;;;;;;9.32;3.05;;;3.80;99.90;;;;;;4156814;28;20065;-71
2021/03/18 03:02:31;;;;;;;6.18;2.83;;;3.80;99.90;;;;;;4159164;28;20037;-71
2021/03/18 03:04:37;;;;;;;6.93;3.13;;;3.80;99.90;;;;;;4158927;28;20038;-71
2021/03/18 03:06:39;;;;;;;6.78;3.13;;;3.80;99.90;;;;;;4157252;28;20040;-71
2021/03/18 03:08:40;;;;;;;6.13;2.65;;;3.70;99.90;;;;;;4159810;28;20049;-71
2021/03/18 03:10:42;;;;;;;5.55;2.35;;;3.70;99.90;;;;;;4160081;28;20033;-71
2021/03/18 03:12:44;;;;;;;5.57;2.90;;;3.70;99.90;;;;;;4152848;28;20038;-71
2021/03/18 03:14:47;;;;;;;8.57;2.83;;;3.70;99.90;;;;;;4161769;28;20029;-71
2021/03/18 03:16:48;;;;;;;8.98;2.80;;;3.70;99.90;;;;;;4158911;28;20042;-71
2021/03/18 03:18:50;;;;;;;6.68;2.80;;;3.70;99.90;;;;;;4161419;28;20029;-71
2021/03/18 03:20:55;;;;;;;8.52;2.92;;;3.70;99.90;;;;;;4162422;28;20040;-71
2021/03/18 03:22:58;;;;;;;5.93;2.35;;;3.70;99.90;;;;;;4143718;28;20041;-71
2021/03/18 03:24:59;;;;;;;6.57;2.65;;;3.70;99.90;;;;;;4153869;28;20398;-71
2021/03/18 03:27:00;;;;;;;6.50;2.55;;;3.70;99.90;;;;;;4158288;28;20029;-71
2021/03/18 03:29:01;;;;;;;6.55;2.92;;;3.70;99.90;;;;;;4162448;28;20060;-71
2021/03/18 03:31:02;;;;;;;5.72;2.78;;;3.70;99.90;;;;;;4155770;28;20040;-71
2021/03/18 03:33:05;;;;;;;6.80;3.22;;;3.70;99.90;;;;;;4157361;28;20036;-71
2021/03/18 03:35:06;;;;;;;9.82;2.90;;;3.60;99.90;;;;;;4161219;28;20038;-71
2021/03/18 03:37:10;;;;;;;5.55;2.72;;;3.60;99.90;;;;;;4162294;28;20121;-71
2021/03/18 03:39:12;;;;;;;7.70;3.17;;;3.60;99.90;;;;;;4162374;28;20044;-71
2021/03/18 03:41:12;;;;;;;5.93;2.90;;;3.60;99.90;;;;;;4161829;28;20029;-71
2021/03/18 03:43:15;;;;;;;6.07;2.85;;;3.60;99.90;;;;;;4160569;28;20042;-71
2021/03/18 03:45:16;;;;;;;;;;;3.60;99.90;;;;;;4161082;28;20525;-71
2021/03/18 03:47:16;;;;;;;9.13;3.35;;;3.60;99.90;;;;;;4161731;28;19963;-71
2021/03/18 03:49:17;;;;;;;6.47;2.65;;;3.50;99.90;;;;;;4148146;28;20103;-71
2021/03/18 03:51:18;;;;;;;7.32;3.15;;;3.50;99.90;;;;;;4161752;28;20041;-71
2021/03/18 03:53:35;;;;;;;8.55;2.83;;;3.50;99.90;;;;;;4153180;28;20042;-71
2021/03/18 03:55:42;;;;;;;6.38;3.20;;;3.50;99.90;;;;;;4160301;28;20428;-71
2021/03/18 03:57:56;;;;;;;8.20;2.70;;;3.50;99.90;;;;;;4160655;28;20034;-71
2021/03/18 03:59:59;;;;;;;6.25;2.83;;;3.50;99.90;;;;;;4161354;28;20471;-72
2021/03/18 04:02:01;;;;;;;7.72;2.95;;;3.50;99.90;;;;;;4151985;28;20569;-71
2021/03/18 04:04:06;;;;;;;8.50;3.83;;;3.50;99.90;;;;;;4162076;28;20083;-71
2021/03/18 04:06:08;;;;;;;5.93;3.08;;;3.50;99.90;;;;;;4158216;28;20481;-71
2021/03/18 04:08:13;;;;;;;5.43;3.13;;;3.50;99.90;;;;;;4158719;28;20034;-71
2021/03/18 04:10:14;;;;;;;11.02;3.55;;;3.50;99.90;;;;;;4160159;28;20029;-71
2021/03/18 04:12:19;;;;;;;6.82;3.55;;;3.50;99.90;;;;;;4156326;28;20037;-71
2021/03/18 04:14:25;;;;;;;7.22;3.50;;;3.50;99.90;;;;;;4161704;28;20042;-71
2021/03/18 04:16:26;;;;;;;11.88;3.63;;;3.50;99.90;;;;;;4160747;28;20038;-71
2021/03/18 04:18:29;;;;;;;7.15;3.45;;;3.50;99.90;;;;;;4162059;28;20117;-71
2021/03/18 04:20:33;;;;;;;8.38;3.50;;;3.50;99.90;;;;;;4161468;28;20056;-72
2021/03/18 04:22:35;;;;;;;4.47;3.00;;;3.50;99.90;;;;;;4161848;28;20434;-71
2021/03/18 04:24:36;;;;;;;5.50;3.10;;;3.50;99.90;;;;;;4160184;28;20030;-71
2021/03/18 04:26:38;;;;;;;6.72;2.92;;;3.50;99.90;;;;;;4157391;28;20489;-71
2021/03/18 04:28:41;;;;;;;4.30;2.70;;;3.50;99.90;;;;;;4161179;28;20090;-71
2021/03/18 04:30:42;;;;;;;8.68;2.90;;;3.50;99.90;;;;;;4160999;28;20040;-71
2021/03/18 04:32:45;;;;;;;7.68;3.33;;;3.50;99.90;;;;;;4160820;28;20393;-71
2021/03/18 04:34:47;;;;;;;8.00;3.20;;;3.50;99.90;;;;;;4153227;28;21599;-71
2021/03/18 04:36:48;;;;;;;6.82;3.75;;;3.50;99.90;;;;;;4143004;28;20042;-71
2021/03/18 04:38:50;;;;;;;5.93;2.97;;;3.50;99.90;;;;;;4161355;28;20060;-71
2021/03/18 04:40:54;;;;;;;6.97;3.08;;;3.50;99.90;;;;;;4160991;28;20025;-71
2021/03/18 04:42:56;;;;;;;10.93;3.70;;;3.60;99.90;;;;;;4159783;28;20041;-71
2021/03/18 04:44:57;;;;;;;11.75;3.80;;;3.60;99.90;;;;;;4160742;28;20116;-71
2021/03/18 04:47:00;;;;;;;6.53;3.47;;;3.60;99.90;;;;;;4161321;28;20037;-71
2021/03/18 04:49:02;;;;;;;8.93;4.07;;;3.60;99.90;;;;;;4153341;28;20037;-72
2021/03/18 04:51:05;;;;;;;10.27;3.47;;;3.60;99.90;;;;;;4160486;28;20034;-71
2021/03/18 04:53:06;;;;;;;9.65;3.90;;;3.60;99.90;;;;;;4154768;28;20517;-71
2021/03/18 04:55:09;;;;;;;14.30;4.10;;;3.60;99.90;;;;;;4159769;28;20072;-71
2021/03/18 04:57:10;;;;;;;6.20;3.20;;;3.60;99.90;;;;;;4158954;28;20065;-71
2021/03/18 04:59:15;;;;;;;5.50;2.90;;;3.60;99.90;;;;;;4153324;28;20067;-71
2021/03/18 05:01:17;;;;;;;6.45;3.55;;;3.60;99.90;;;;;;4149444;28;20168;-71
2021/03/18 05:03:18;;;;;;;4.63;2.92;;;3.60;99.90;;;;;;4158586;28;20664;-71
2021/03/18 05:05:21;;;;;;;7.97;3.15;;;3.60;99.90;;;;;;4155737;28;20034;-71
2021/03/18 05:07:23;;;;;;;6.65;3.13;;;3.60;99.90;;;;;;4160796;28;20099;-72
2021/03/18 05:09:24;;;;;;;7.18;3.08;;;3.60;99.90;;;;;;4156478;28;20068;-71
2021/03/18 05:11:25;;;;;;;6.93;3.20;;;3.60;99.90;;;;;;4159553;28;20489;-71
2021/03/18 05:13:28;;;;;;;5.80;3.28;;;3.70;99.90;;;;;;4153207;28;20087;-71
2021/03/18 05:15:29;;;;;;;7.70;2.60;;;3.60;99.90;;;;;;4161027;28;20088;-71
2021/03/18 05:17:30;;;;;;;5.97;2.95;;;3.60;99.90;;;;;;4158332;28;20041;-71
2021/03/18 05:19:31;;;;;;;11.38;2.83;;;3.60;99.90;;;;;;4157198;28;20079;-71
2021/03/18 05:21:32;;;;;;;6.70;2.90;;;3.70;99.90;;;;;;4158099;28;20033;-71
2021/03/18 05:23:33;;;;;;;5.82;2.75;;;3.70;99.90;;;;;;4159222;28;20045;-71
2021/03/18 05:25:35;;;;;;;9.68;3.20;;;3.70;99.90;;;;;;4158466;28;20041;-71
2021/03/18 05:27:38;;;;;;;5.43;2.95;;;3.70;99.90;;;;;;4154879;28;20058;-71
2021/03/18 05:29:39;;;;;;;8.18;3.10;;;3.70;99.90;;;;;;4158356;28;20489;-71
2021/03/18 05:31:41;;;;;;;8.05;2.95;;;3.80;99.90;;;;;;4157885;28;20060;-71
2021/03/18 05:33:41;;;;;;;6.38;3.40;;;3.80;99.90;;;;;;4157055;28;20494;-71
2021/03/18 05:35:44;;;;;;;6.53;3.47;;;3.80;99.90;;;;;;4158975;28;20041;-71
2021/03/18 05:37:44;;;;;;;4.68;2.72;;;3.80;99.90;;;;;;4140440;28;20614;-71
2021/03/18 05:39:45;;;;;;;5.60;3.13;;;3.90;99.90;;;;;;4174846;28;20037;-71
2021/03/18 05:41:46;;;;;;;5.85;3.05;;;3.90;99.90;;;;;;4154791;28;20033;-71
2021/03/18 05:43:48;;;;;;;8.05;3.40;;;3.90;99.90;;;;;;4160394;28;20115;-71
2021/03/18 05:45:51;;;;;;;5.55;2.75;;;3.90;99.90;;;;;;4160252;28;20037;-71
2021/03/18 05:47:52;;;;;;;6.70;3.05;;;3.90;99.90;;;;;;4138500;28;20030;-71
2021/03/18 05:49:53;;;;;;;6.97;2.95;;;3.90;99.90;;;;;;4157446;28;20065;-71
2021/03/18 05:51:54;;;;;;;7.70;3.15;;;3.90;99.90;;;;;;4159821;28;20358;-71
2021/03/18 05:53:57;;;;;;;6.32;3.35;;;3.90;99.90;;;;;;4159896;28;20037;-71
2021/03/18 05:56:00;;;;;;;6.18;2.88;;;3.90;99.90;;;;;;4159900;28;20025;-71
2021/03/18 05:58:01;;;;;;;5.50;2.60;;;3.90;99.90;;;;;;4155407;28;20029;-71
2021/03/18 06:00:07;;;;;;;5.60;3.00;;;3.90;99.90;;;;;;4157194;28;20052;-72
2021/03/18 06:02:08;;;;;;;9.48;3.30;;;3.90;99.90;;;;;;4157405;28;20566;-71
2021/03/18 06:04:09;;;;;;;7.00;3.35;;;3.90;99.90;;;;;;4142376;28;20499;-71
2021/03/18 06:06:11;;;;;;;6.50;3.22;;;4.00;99.90;;;;;;4159092;28;20025;-71
2021/03/18 06:08:11;;;;;;;5.25;3.30;;;3.90;99.90;;;;;;4154414;28;20120;-71
2021/03/18 06:10:15;;;;;;;6.10;2.92;;;4.00;99.90;;;;;;4157476;28;20524;-71
2021/03/18 06:12:16;;;;;;;9.32;3.35;;;4.00;99.90;;;;;;4156604;28;20040;-71
2021/03/18 06:14:17;;;;;;;6.75;3.28;;;4.00;99.90;;;;;;4157323;28;20037;-71
2021/03/18 06:16:18;;;;;;;9.77;3.15;;;4.00;99.90;;;;;;4158705;28;20053;-71
2021/03/18 06:18:20;;;;;;;7.05;3.03;;;4.00;99.90;;;;;;4159220;28;20037;-71
2021/03/18 06:20:27;;;;;;;7.50;3.15;;;4.00;99.90;;;;;;4156160;28;20644;-71
2021/03/18 06:22:40;;;;;;;7.50;3.17;;;4.00;99.90;;;;;;4148692;28;20104;-71
2021/03/18 06:24:48;;;;;;;7.20;3.30;;;4.00;99.90;;;;;;4158815;28;20025;-72
2021/03/18 06:26:49;;;;;;;7.03;2.83;;;4.00;99.90;;;;;;4150890;28;20030;-73
2021/03/18 06:28:51;;;;;;;8.77;3.20;;;4.00;99.90;;;;;;4146309;28;20026;-73
2021/03/18 06:31:07;;;;;;;5.43;2.92;;;4.00;99.90;;;;;;4143706;28;20053;-73
2021/03/18 06:33:19;;;;;;;7.13;3.60;;;3.90;99.90;;;;;;4167533;28;20033;-73
2021/03/18 06:35:29;;;;;;;6.10;2.92;;;3.90;99.90;;;;;;4157265;28;20131;-73
2021/03/18 06:37:40;;;;;;;7.75;3.88;;;3.90;99.90;;;;;;4152289;28;20693;-72
2021/03/18 06:40:24;;;;;;;7.55;4.00;;;3.90;99.90;;;;;;4145919;28;20100;-73
2021/03/18 06:42:25;;;;;;;6.63;3.60;;;3.90;99.90;;;;;;4156791;28;20037;-73
2021/03/18 06:44:30;;;;;;;12.10;4.10;;;4.00;99.90;;;;;;4159232;28;20064;-73
2021/03/18 06:46:31;;;;;;;7.38;4.05;;;3.90;99.90;;;;;;4156689;28;20034;-72
2021/03/18 06:48:37;;;;;;;9.13;4.20;;;3.90;99.90;;;;;;4137285;28;20045;-73
2021/03/18 06:50:43;;;;;;;7.80;4.60;;;4.00;99.90;;;;;;4155380;28;20090;-72
2021/03/18 06:52:44;;;;;;;9.25;4.47;;;4.00;99.90;;;;;;4159464;28;20064;-73
2021/03/18 06:54:46;;;;;;;8.32;4.13;;;4.00;99.90;;;;;;4156756;28;20033;-72
2021/03/18 06:56:57;;;;;;;9.45;4.10;;;4.00;99.90;;;;;;4157527;28;20572;-72
2021/03/18 06:58:59;;;;;;;8.40;4.60;;;4.00;99.90;;;;;;4155610;28;20030;-73
2021/03/18 07:01:05;;;;;;;7.50;4.43;;;4.00;99.90;;;;;;4158220;28;20454;-73
2021/03/18 07:03:09;;;;;;;13.13;5.47;;;4.00;99.90;;;;;;4155906;28;20048;-73
2021/03/18 07:05:19;;;;;;;10.55;5.50;;;4.00;99.90;;;;;;4158782;28;20048;-72
2021/03/18 07:07:25;;;;;;;9.20;5.53;;;4.00;99.90;;;;;;4138619;28;20072;-72
2021/03/18 07:09:28;;;;;;;10.90;4.75;;;4.00;99.90;;;;;;4158174;28;20501;-72
2021/03/18 07:11:29;;;;;;;12.10;6.53;;;4.10;99.90;;;;;;4155618;28;20029;-72
2021/03/18 07:13:32;;;;;;;8.93;5.10;;;4.10;99.90;;;;;;4154733;28;20072;-72
2021/03/18 07:15:36;;;;;;;10.68;4.80;;;4.10;99.90;;;;;;4157051;28;20041;-72
2021/03/18 07:17:39;;;;;;;7.80;4.47;;;4.20;99.90;;;;;;4157817;28;20697;-72
2021/03/18 07:19:39;;;;;;;8.70;4.18;;;4.20;99.90;;;;;;4157390;28;20046;-72
2021/03/18 07:21:41;;;;;;;8.40;4.43;;;4.20;99.90;;;;;;4157550;28;20036;-72
2021/03/18 07:23:47;;;;;;;11.27;4.47;;;4.20;99.90;;;;;;4155586;28;20045;-72
2021/03/18 07:25:47;;;;;;;9.95;4.93;;;4.20;99.90;;;;;;4157991;28;20045;-72
2021/03/18 07:27:51;;;;;;;10.80;4.25;;;4.20;99.90;;;;;;4156402;28;20042;-72
2021/03/18 07:29:52;;;;;;;8.90;4.35;;;4.20;99.90;;;;;;4157595;28;20768;-72
2021/03/18 07:31:53;;;;;;;11.68;4.35;;;4.10;99.90;;;;;;4157134;28;20037;-72
2021/03/18 07:33:54;;;;;;;8.27;4.13;;;4.10;99.90;;;;;;4157417;28;20112;-72
2021/03/18 07:35:55;;;;;;;8.05;3.92;;;4.20;99.90;;;;;;4157864;28;20443;-72
2021/03/18 07:38:03;;;;;;;10.95;3.92;;;4.20;99.90;;;;;;4154156;28;20102;-72
2021/03/18 07:40:04;;;;;;;10.60;4.07;;;4.30;99.90;;;;;;4157025;28;20064;-72
2021/03/18 07:42:06;;;;;;;11.73;4.40;;;4.30;99.90;;;;;;4153386;28;20491;-72
2021/03/18 07:44:07;;;;;;;10.07;4.63;;;4.40;99.90;;;;;;4157739;28;20045;-72
2021/03/18 07:46:11;;;;;;;9.32;3.90;;;4.40;99.90;;;;;;4155738;28;20486;-72
2021/03/18 07:48:13;;;;;;;8.13;4.15;;;4.40;99.90;;;;;;4156894;28;20038;-72
2021/03/18 07:50:17;;;;;;;6.85;3.85;;;4.40;99.90;;;;;;4157266;28;21073;-72
2021/03/18 07:52:23;;;;;;;6.35;3.22;;;4.40;99.90;;;;;;4158998;28;20069;-72
2021/03/18 07:54:25;;;;;;;11.02;4.40;;;4.50;99.90;;;;;;4157962;28;20129;-72
2021/03/18 07:56:26;;;;;;;;;;;4.60;99.90;;;;;;4161511;28;20033;-73
2021/03/18 07:58:41;;;;;;;7.28;4.22;;;4.60;99.90;;;;;;4160318;28;20615;-73
2021/03/18 08:00:45;;;;;;;11.07;4.03;;;4.60;99.90;;;;;;4156501;28;20474;-72
2021/03/18 08:02:46;;;;;;;8.63;4.35;;;4.70;99.90;;;;;;4158685;28;20033;-73
2021/03/18 08:04:54;;;;;;;11.40;4.68;;;4.70;99.90;;;;;;4160997;28;20636;-72
2021/03/18 08:06:56;;;;;;;9.73;4.82;;;4.80;99.90;;;;;;4157929;28;20120;-73
2021/03/18 08:08:57;;;;;;;9.07;5.18;;;4.80;99.90;;;;;;4160823;28;20879;-72
2021/03/18 08:11:12;;;;;;;9.52;4.00;;;4.90;99.90;;;;;;4158710;28;20041;-72
2021/03/18 08:13:32;;;;;;;8.95;4.10;;;4.90;99.90;;;;;;4151918;28;20071;-72
2021/03/18 08:15:42;;;;;;;10.80;5.38;;;4.90;99.90;;;;;;4157343;28;20037;-72
2021/03/18 08:17:43;;;;;;;8.57;4.18;;;5.00;99.90;;;;;;4157732;28;20113;-73
2021/03/18 08:19:44;;;;;;;9.63;4.68;;;5.00;99.90;;;;;;4158452;28;20445;-73
2021/03/18 08:21:48;;;;;;;7.65;4.28;;;5.00;99.90;;;;;;4160262;28;20034;-73
2021/03/18 08:23:49;;;;;;;8.60;4.50;;;5.00;99.90;;;;;;4160224;28;20033;-73
2021/03/18 08:25:57;;;;;;;11.03;4.20;;;5.10;99.90;;;;;;4157263;28;20123;-72
2021/03/18 08:27:57;;;;;;;8.80;3.95;;;5.10;99.90;;;;;;4158393;28;20041;-72
2021/03/18 08:30:00;;;;;;;9.45;4.43;;;5.20;99.90;;;;;;4160168;28;20045;-73
2021/03/18 08:32:09;;;;;;;12.32;5.15;;;5.20;99.90;;;;;;4158254;28;20041;-72
2021/03/18 08:34:10;;;;;;;9.23;4.40;;;5.20;99.90;;;;;;4155254;28;20040;-72
2021/03/18 08:36:20;;;;;;;16.02;4.32;;;5.30;99.90;;;;;;4160360;28;20116;-73
2021/03/18 08:38:21;;;;;;;11.10;4.45;;;5.30;99.90;;;;;;4158677;28;20064;-72
2021/03/18 08:40:22;;;;;;;8.68;3.80;;;5.40;99.90;;;;;;4158732;28;20029;-73
2021/03/18 08:42:30;;;;;;;;;;;5.40;99.90;;;;;;4158438;28;20048;-72
2021/03/18 08:44:51;;;;;;;8.27;3.63;;;5.50;99.90;;;;;;4157980;28;19917;-72
2021/03/18 08:47:03;;;;;;;7.03;4.07;;;5.50;99.90;;;;;;4157356;28;20037;-73
2021/03/18 08:49:37;;;;;;;8.30;4.10;;;5.50;99.90;;;;;;4158784;28;20026;-72
2021/03/18 08:51:41;;;;;;;12.10;3.88;;;5.60;99.90;;;;;;4141071;28;20034;-72
2021/03/18 08:53:44;;;;;;;7.00;3.55;;;5.60;99.90;;;;;;4160411;28;20033;-72
2021/03/18 08:55:46;;;;;;;5.32;3.13;;;5.60;99.90;;;;;;4160460;28;20045;-72
2021/03/18 08:57:57;;;;;;;7.05;3.65;;;5.70;99.90;;;;;;4158728;28;20116;-72
2021/03/18 09:00:11;;;;;;;9.60;4.22;;;5.60;99.90;;;;;;4157976;28;20068;-73
2021/03/18 09:02:13;;;;;;;9.20;3.38;;;5.60;99.90;;;;;;4157263;28;20041;-72
2021/03/18 09:04:14;;;;;;;8.07;3.35;;;5.70;99.90;;;;;;4152723;28;20400;-73
2021/03/18 09:06:19;;;;;;;7.30;3.53;;;5.70;99.90;;;;;;4157986;28;20033;-72
2021/03/18 09:08:30;;;;;;;12.88;3.83;;;5.70;99.90;;;;;;4158401;28;20045;-72
2021/03/18 09:10:33;;;;;;;10.30;3.53;;;5.70;99.90;;;;;;4158584;28;20030;-72
2021/03/18 09:12:36;;;;;;;;;;;5.80;99.90;;;;;;4157997;28;20381;-72
2021/03/18 09:14:40;;;;;;;13.73;3.85;;;5.80;99.90;;;;;;4158652;28;19913;-73
2021/03/18 09:16:41;;;;;;;8.00;3.63;;;5.80;99.90;;;;;;4159228;28;20061;-72
2021/03/18 09:18:42;;;;;;;8.18;3.05;;;5.80;99.90;;;;;;4159037;28;20124;-72
2021/03/18 09:20:59;;;;;;;11.75;3.13;;;5.90;99.90;;;;;;4157749;28;20064;-72
2021/03/18 09:23:17;;;;;;;10.77;3.60;;;5.90;99.90;;;;;;4153175;28;20046;-72
2021/03/18 09:25:24;;;;;;;10.52;3.95;;;5.90;99.90;;;;;;4153435;28;20389;-72
2021/03/18 09:27:37;;;;;;;10.40;3.83;;;5.90;99.90;;;;;;4158442;28;20037;-71
2021/03/18 09:29:39;;;;;;;7.68;3.13;;;5.90;99.90;;;;;;4158057;28;20034;-72
2021/03/18 09:31:40;;;;;;;10.48;3.70;;;5.90;99.90;;;;;;4157677;28;20116;-72
2021/03/18 09:33:43;;;;;;;11.25;2.70;;;6.00;99.90;;;;;;4158850;28;20040;-72
2021/03/18 09:35:44;;;;;;;11.27;3.40;;;6.00;99.90;;;;;;4159438;28;20037;-72
2021/03/18 09:37:46;;;;;;;10.00;3.40;;;6.00;99.90;;;;;;4158137;28;20034;-72
2021/03/18 09:39:49;;;;;;;9.00;3.53;;;6.10;99.90;;;;;;4157891;28;20117;-72
2021/03/18 09:41:50;;;;;;;9.35;3.25;;;6.10;99.90;;;;;;4156951;28;20045;-72
2021/03/18 09:44:08;;;;;;;8.60;3.47;;;6.10;99.90;;;;;;4157790;28;20046;-72
2021/03/18 09:46:09;;;;;;;8.20;3.30;;;6.20;99.90;;;;;;4156964;28;20482;-72
2021/03/18 09:48:10;;;;;;;8.20;3.22;;;6.20;99.90;;;;;;4159351;28;20033;-72
2021/03/18 09:50:11;;;;;;;7.28;3.20;;;6.20;99.90;;;;;;4141033;28;20026;-70
2021/03/18 09:52:16;;;;;;;5.50;2.92;;;6.20;99.90;;;;;;4157390;28;20425;-72
2021/03/18 09:54:22;;;;;;;12.13;3.35;;;6.20;99.90;;;;;;4157743;28;20037;-72
2021/03/18 09:56:23;;;;;;;8.95;3.40;;;6.20;99.90;;;;;;4159916;28;20026;-72
2021/03/18 09:58:27;;;;;;;8.93;3.28;;;6.30;99.90;;;;;;4156897;28;20049;-72
2021/03/18 10:00:28;;;;;;;10.18;3.17;;;6.30;99.90;;;;;;4159545;28;20036;-72
2021/03/18 10:02:29;;;;;;;8.63;3.15;;;6.40;99.90;;;;;;4157643;28;20862;-72
2021/03/18 10:04:42;;;;;;;12.38;3.33;;;6.40;99.90;;;;;;4158431;28;20037;-72
2021/03/18 10:06:44;;;;;;;9.30;2.70;;;6.40;99.90;;;;;;4158198;28;20060;-72
2021/03/18 10:08:45;;;;;;;7.03;2.67;;;6.40;99.90;;;;;;4157683;28;20501;-72
2021/03/18 10:10:46;;;;;;;9.52;2.88;;;6.40;99.90;;;;;;4158449;28;20260;-71
2021/03/18 10:12:50;;;;;;;6.20;2.47;;;6.40;99.90;;;;;;4156780;28;20061;-72
2021/03/18 10:14:55;;;;;;;8.82;2.40;;;6.40;99.90;;;;;;4158345;28;20037;-72
2021/03/18 10:16:58;;;;;;;8.73;2.58;;;6.40;99.90;;;;;;4157971;28;20038;-72
2021/03/18 10:18:59;;;;;;;10.18;3.10;;;6.40;99.90;;;;;;4151334;28;20060;-71
2021/03/18 10:21:05;;;;;;;7.35;2.67;;;6.50;99.90;;;;;;4140361;28;20132;-72
2021/03/18 10:23:10;;;;;;;9.88;2.65;;;6.50;99.90;;;;;;4156711;28;20033;-72
2021/03/18 10:25:19;;;;;;;7.32;3.00;;;6.50;99.90;;;;;;4157802;28;20080;-71
2021/03/18 10:27:21;;;;;;;8.73;2.83;;;6.50;99.90;;;;;;4157406;28;20543;-72
2021/03/18 10:29:22;;;;;;;4.70;3.13;;;6.60;99.90;;;;;;4157782;28;20117;-72
2021/03/18 10:31:22;;;;;;;8.88;2.95;;;6.60;99.90;;;;;;4156832;28;20116;-72
2021/03/18 10:33:25;;;;;;;6.32;2.75;;;6.60;99.90;;;;;;4158120;28;20034;-72
2021/03/18 10:35:27;;;;;;;12.45;4.10;;;6.60;99.90;;;;;;4158949;28;20034;-72
2021/03/18 10:37:32;;;;;;;14.38;3.45;;;6.60;99.90;;;;;;4158235;28;20087;-72
2021/03/18 10:39:33;;;;;;;9.50;3.25;;;6.70;99.90;;;;;;4157640;28;20048;-72
2021/03/18 10:41:34;;;;;;;7.40;3.10;;;6.60;99.90;;;;;;4156433;28;20025;-72
2021/03/18 10:43:39;;;;;;;11.95;3.75;;;6.70;99.90;;;;;;4156498;28;20513;-72
2021/03/18 10:45:45;;;;;;;8.80;3.10;;;6.60;99.90;;;;;;4156528;28;20052;-72
2021/03/18 10:47:46;;;;;;;6.30;2.75;;;6.60;99.90;;;;;;4157703;28;20033;-72
2021/03/18 10:50:08;;;;;;;8.07;3.28;;;6.60;99.90;;;;;;4158606;28;20041;-72
2021/03/18 10:52:09;;;;;;;8.27;3.38;;;6.60;99.90;;;;;;4139876;28;20033;-72